Terminal Aerodrome Forecast
Issued by NWS

Home | Current Version | Previous Version | Text Only | Print | Product List | Glossary On
Versions: 1 2 3 4 5 6 7 8 9 10 11 12 13 14 15 16 17 18 19 20 21 22
613
FTUS43 KDVN 152328
TAFCID
TAF
KCID 152328Z 1600/1624 12004KT P6SM BKN100
     FM160500 11006KT 5SM -FZRAPL BR BKN015
     FM160700 10007KT 4SM -FZRAPL BR OVC009
     FM160900 09008KT 3SM -FZRA BR OVC005
     FM161600 09008KT 2SM RA BR OVC005=

USA.gov is the U.S. government's official web portal to all federal, state and local government web resources and services.